Time;durP1;ratioP1;P1;durP2;ratioP2;P2;SDS_P1;SDS_P2;PMS_P1;PMS_P2;Temp;Humidity;BMP_temperature;BMP_pressure;BME280_temperature;BME280_humidity;BME280_pressure;Samples;Min_cycle;Max_cycle;Signal;HPM_P1;HPM_P2
2022/08/04 00:02:09;;;;;;;9.23;3.17;;;;;;;;;;5048964;28;20400;-59
2022/08/04 00:04:54;;;;;;;8.40;3.05;;;20.30;99.90;;;;;;5053600;28;20503;-59
2022/08/04 00:07:37;;;;;;;11.88;3.85;;;;;;;;;;5021255;28;20045;-60
2022/08/04 00:10:05;;;;;;;8.73;3.80;;;;;;;;;;5033517;28;20045;-60
2022/08/04 00:12:32;;;;;;;6.05;3.05;;;;;;;;;;5045828;28;20043;-60
2022/08/04 00:15:00;;;;;;;9.02;3.35;;;;;;;;;;5033800;28;20515;-59
2022/08/04 00:17:39;;;;;;;7.55;2.78;;;20.10;99.90;;;;;;5034758;28;20124;-59
2022/08/04 00:20:08;;;;;;;12.10;2.70;;;20.20;99.90;;;;;;5042067;28;20090;-59
2022/08/04 00:22:34;;;;;;;9.57;2.78;;;;;;;;;;5016750;28;20085;-59
2022/08/04 00:25:04;;;;;;;9.15;2.97;;;;;;;;;;5033410;28;20125;-60
2022/08/04 00:27:30;;;;;;;10.60;3.10;;;;;;;;;;5039111;28;20041;-60
2022/08/04 00:29:57;;;;;;;13.52;3.20;;;;;;;;;;5032082;28;20157;-59
2022/08/04 00:32:23;;;;;;;7.65;2.78;;;;;;;;;;5033861;28;20052;-59
2022/08/04 00:34:49;;;;;;;11.45;3.97;;;;;;;;;;5050381;28;20086;-59
2022/08/04 00:37:15;;;;;;;9.25;3.00;;;;;;;;;;5032073;28;20067;-59
2022/08/04 00:39:42;;;;;;;7.90;2.50;;;;;;;;;;5039286;28;20110;-59
2022/08/04 00:42:08;;;;;;;9.13;2.83;;;;;;;;;;5036398;28;20084;-59
2022/08/04 00:44:47;;;;;;;9.95;3.85;;;;;;;;;;5012712;28;20089;-59
2022/08/04 00:47:31;;;;;;;6.05;2.53;;;;;;;;;;5017209;28;20515;-59
2022/08/04 00:50:11;;;;;;;8.30;2.70;;;;;;;;;;5014233;28;20520;-59
2022/08/04 00:52:46;;;;;;;7.75;2.65;;;;;;;;;;5029867;28;20062;-59
2022/08/04 00:55:18;;;;;;;8.02;2.83;;;;;;;;;;5013368;28;20057;-59
2022/08/04 00:58:05;;;;;;;8.52;2.85;;;;;;;;;;5013620;28;20054;-59
2022/08/04 01:00:43;;;;;;;8.35;2.75;;;20.00;99.90;;;;;;5013186;28;20096;-59
2022/08/04 01:03:17;;;;;;;8.43;2.65;;;;;;;;;;5014289;28;20412;-59
2022/08/04 01:05:53;;;;;;;5.53;2.63;;;;;;;;;;4995165;28;20550;-59
2022/08/04 01:08:40;;;;;;;8.70;3.03;;;20.30;99.90;;;;;;5025274;28;20053;-59
2022/08/04 01:11:42;;;;;;;11.05;3.50;;;20.30;99.90;;;;;;5023010;28;20129;-59
2022/08/04 01:14:08;;;;;;;7.18;3.30;;;;;;;;;;5014018;28;20073;-60
2022/08/04 01:16:39;;;;;;;7.57;3.20;;;;;;;;;;5024034;28;20567;-59
2022/08/04 01:19:16;;;;;;;9.90;3.65;;;;;;;;;;5014652;28;20092;-60
2022/08/04 01:22:01;;;;;;;8.82;3.17;;;19.80;99.90;;;;;;5018072;28;20041;-59
2022/08/04 01:24:27;;;;;;;9.13;2.90;;;;;;;;;;4995674;28;20041;-59
2022/08/04 01:26:57;;;;;;;9.23;3.42;;;;;;;;;;5024969;28;20184;-59
2022/08/04 01:29:23;;;;;;;8.63;3.22;;;;;;;;;;5014547;28;20041;-59
2022/08/04 01:31:56;;;;;;;10.10;3.03;;;;;;;;;;4996008;28;20524;-59
2022/08/04 01:34:22;;;;;;;7.40;2.65;;;;;;;;;;5028730;28;20080;-59
2022/08/04 01:36:59;;;;;;;11.98;4.28;;;19.90;99.90;;;;;;5026804;28;20118;-59
2022/08/04 01:39:39;;;;;;;8.88;2.88;;;;;;;;;;5029819;28;20046;-59
2022/08/04 01:42:05;;;;;;;7.03;3.15;;;;;;;;;;5013657;28;20054;-59
2022/08/04 01:44:32;;;;;;;9.15;3.13;;;;;;;;;;5032709;28;20088;-59
2022/08/04 01:47:00;;;;;;;9.93;3.63;;;;;;;;;;5037445;28;20121;-59
2022/08/04 01:49:29;;;;;;;8.43;3.00;;;;;;;;;;5028411;28;20051;-59
2022/08/04 01:51:55;;;;;;;8.05;3.00;;;;;;;;;;5033355;28;20045;-59
2022/08/04 01:54:22;;;;;;;11.45;3.25;;;;;;;;;;5035390;28;20041;-60
2022/08/04 01:56:49;;;;;;;8.15;4.40;;;;;;;;;;5014048;28;20056;-60
2022/08/04 01:59:17;;;;;;;8.55;3.30;;;;;;;;;;5031958;28;20621;-60
2022/08/04 02:01:43;;;;;;;9.15;3.70;;;;;;;;;;5032982;28;20053;-60
2022/08/04 02:04:16;;;;;;;8.55;3.95;;;;;;;;;;5034066;28;20485;-60
2022/08/04 02:07:10;;;;;;;6.97;3.00;;;19.30;99.90;;;;;;5045359;28;20044;-60
2022/08/04 02:09:46;;;;;;;8.73;3.55;;;;;;;;;;5035943;28;20042;-60
2022/08/04 02:12:22;;;;;;;8.45;3.15;;;;;;;;;;5032852;28;20053;-59
2022/08/04 02:14:55;;;;;;;10.63;4.03;;;;;;;;;;5034296;28;20053;-59
2022/08/04 02:17:40;;;;;;;9.15;3.53;;;;;;;;;;5013923;28;20187;-59
2022/08/04 02:20:22;;;;;;;7.75;3.08;;;19.10;99.90;;;;;;5041402;28;20058;-59
2022/08/04 02:23:13;;;;;;;9.45;3.88;;;19.50;99.90;;;;;;5032354;28;20045;-59
2022/08/04 02:25:46;;;;;;;10.50;4.18;;;;;;;;;;5047904;28;20056;-59
2022/08/04 02:28:15;;;;;;;10.25;3.75;;;;;;;;;;5032673;28;20045;-60
2022/08/04 02:31:07;;;;;;;5.70;2.78;;;19.10;99.90;;;;;;5032007;28;20044;-59
2022/08/04 02:33:38;;;;;;;9.95;3.80;;;;;;;;;;5037201;28;20042;-59
2022/08/04 02:36:05;;;;;;;7.20;3.35;;;;;;;;;;5036940;28;20045;-59
2022/08/04 02:38:40;;;;;;;9.00;3.67;;;;;;;;;;5013283;28;20049;-59
2022/08/04 02:41:08;;;;;;;10.27;3.30;;;;;;;;;;5031846;28;20464;-59
2022/08/04 02:43:35;;;;;;;6.63;3.00;;;;;;;;;;5031064;28;20057;-59
2022/08/04 02:46:02;;;;;;;6.95;3.15;;;;;;;;;;5032548;28;20421;-59
2022/08/04 02:48:29;;;;;;;7.82;3.45;;;;;;;;;;5032457;28;20056;-59
2022/08/04 02:50:55;;;;;;;9.00;3.45;;;;;;;;;;5039853;28;20513;-59
2022/08/04 02:53:22;;;;;;;9.93;3.42;;;;;;;;;;5033496;28;20179;-59
2022/08/04 02:55:48;;;;;;;6.88;3.45;;;;;;;;;;5042388;28;20053;-59
2022/08/04 02:58:16;;;;;;;11.35;3.63;;;;;;;;;;5032538;28;20041;-60
2022/08/04 03:00:44;;;;;;;8.40;3.78;;;;;;;;;;5045559;28;20085;-59
2022/08/04 03:03:34;;;;;;;8.98;4.25;;;;;;;;;;5043357;28;20404;-59
2022/08/04 03:06:00;;;;;;;7.35;2.97;;;;;;;;;;5031807;28;20397;-59
2022/08/04 03:08:42;;;;;;;7.90;3.65;;;;;;;;;;5013788;28;20060;-59
2022/08/04 03:11:26;;;;;;;9.85;3.92;;;;;;;;;;5014389;28;20097;-59
2022/08/04 03:14:10;;;;;;;8.88;3.80;;;;;;;;;;5034814;28;20056;-60
2022/08/04 03:16:59;;;;;;;6.70;3.13;;;;;;;;;;5022672;28;20048;-59
2022/08/04 03:19:35;;;;;;;9.13;2.97;;;;;;;;;;5025218;28;20128;-59
2022/08/04 03:22:15;;;;;;;7.47;3.15;;;19.20;99.90;;;;;;5031681;28;20081;-59
2022/08/04 03:24:50;;;;;;;6.05;2.95;;;;;;;;;;5012292;28;20046;-59
2022/08/04 03:27:34;;;;;;;11.40;4.22;;;;;;;;;;5008566;28;20104;-59
2022/08/04 03:30:03;;;;;;;8.88;2.97;;;;;;;;;;5031769;28;20045;-59
2022/08/04 03:32:41;;;;;;;8.68;3.83;;;;;;;;;;5030561;28;20516;-59
2022/08/04 03:35:43;;;;;;;10.00;3.15;;;19.20;99.90;;;;;;5030972;28;20541;-59
2022/08/04 03:38:13;;;;;;;10.82;3.20;;;;;;;;;;5013815;28;20749;-60
2022/08/04 03:40:51;;;;;;;8.00;3.80;;;;;;;;;;5032032;28;20053;-59
2022/08/04 03:43:17;;;;;;;10.65;3.83;;;;;;;;;;5030864;28;20069;-59
2022/08/04 03:45:58;;;;;;;6.78;3.40;;;;;;;;;;5034902;28;20040;-59
2022/08/04 03:48:52;;;;;;;8.15;3.67;;;;;;;;;;5034717;28;20037;-59
2022/08/04 03:54:31;;;;;;;11.05;3.72;;;;;;;;;;5035502;28;20413;-59
2022/08/04 03:57:34;;;;;;;8.10;3.25;;;18.70;99.90;;;;;;5018129;28;20581;-59
2022/08/04 04:00:00;;;;;;;6.07;3.47;;;;;;;;;;5034436;28;20073;-59
2022/08/04 04:02:37;;;;;;;8.60;3.30;;;;;;;;;;5033214;28;20084;-59
2022/08/04 04:05:17;;;;;;;6.72;3.25;;;;;;;;;;5035045;28;20056;-59
2022/08/04 04:08:04;;;;;;;6.70;3.25;;;;;;;;;;5035262;28;20057;-59
2022/08/04 04:10:30;;;;;;;11.18;3.78;;;;;;;;;;5015405;28;20050;-59
2022/08/04 04:12:56;;;;;;;9.35;3.60;;;;;;;;;;5029518;28;20056;-59
2022/08/04 04:16:00;;;;;;;6.40;3.05;;;18.90;99.90;;;;;;5034506;28;20436;-59
2022/08/04 04:18:37;;;;;;;8.65;4.15;;;;;;;;;;5033849;28;20059;-59
2022/08/04 04:21:15;;;;;;;7.07;4.03;;;;;;;;;;5035006;28;20124;-59
2022/08/04 04:24:00;;;;;;;6.30;4.00;;;;;;;;;;5029360;28;20064;-59
2022/08/04 04:26:34;;;;;;;8.85;3.90;;;;;;;;;;5034424;28;20053;-59
2022/08/04 04:29:15;;;;;;;7.40;3.45;;;;;;;;;;5034033;28;20132;-59
2022/08/04 04:31:41;;;;;;;9.07;4.00;;;;;;;;;;5033974;28;20073;-59
2022/08/04 04:34:19;;;;;;;9.43;4.78;;;;;;;;;;5032098;28;20586;-59
2022/08/04 04:36:54;;;;;;;8.30;4.10;;;;;;;;;;5034834;28;20045;-59
2022/08/04 04:39:27;;;;;;;7.75;3.45;;;;;;;;;;5033871;28;20171;-59
2022/08/04 04:41:55;;;;;;;7.63;4.07;;;;;;;;;;5030910;28;20528;-59
2022/08/04 04:44:27;;;;;;;10.30;4.10;;;;;;;;;;5032819;28;20069;-59
2022/08/04 04:47:32;;;;;;;9.15;3.92;;;19.30;99.90;;;;;;5034609;28;20142;-59
2022/08/04 04:50:10;;;;;;;11.90;3.65;;;;;;;;;;5032932;28;20398;-59
2022/08/04 04:52:40;;;;;;;8.27;4.13;;;;;;;;;;5034066;28;20038;-59
2022/08/04 04:55:25;;;;;;;8.90;4.20;;;;;;;;;;5033204;28;20049;-59
2022/08/04 04:57:52;;;;;;;9.98;4.72;;;;;;;;;;5033177;28;20095;-59
2022/08/04 05:00:19;;;;;;;11.48;4.72;;;;;;;;;;5033934;28;20053;-59
2022/08/04 05:03:16;;;;;;;9.93;4.57;;;19.80;99.90;;;;;;5015722;28;20045;-59
2022/08/04 05:06:13;;;;;;;8.38;4.30;;;20.00;99.90;;;;;;5033119;28;20488;-59
2022/08/04 05:09:06;;;;;;;10.70;4.95;;;19.70;99.90;;;;;;5033348;28;20041;-59
2022/08/04 05:11:42;;;;;;;12.80;4.93;;;20.20;99.90;;;;;;5033949;28;20168;-59
2022/08/04 05:14:16;;;;;;;14.30;5.78;;;20.20;99.90;;;;;;5033317;28;20060;-59
2022/08/04 05:17:08;;;;;;;11.73;6.10;;;20.30;99.90;;;;;;5033183;28;20042;-59
2022/08/04 05:19:34;;;;;;;11.05;6.15;;;;;;;;;;5033239;28;20145;-59
2022/08/04 05:22:09;;;;;;;11.00;5.50;;;20.70;99.90;;;;;;5014276;28;20132;-59
2022/08/04 05:24:39;;;;;;;11.68;6.57;;;20.50;99.90;;;;;;5032181;28;20413;-60
2022/08/04 05:27:10;;;;;;;;;;;21.00;99.90;;;;;;5033547;28;20045;-59
2022/08/04 05:29:45;;;;;;;10.30;5.40;;;20.90;99.90;;;;;;5033537;28;19921;-59
2022/08/04 05:32:14;;;;;;;9.77;6.28;;;20.80;99.90;;;;;;5032152;28;20180;-59
2022/08/04 05:34:46;;;;;;;9.45;5.82;;;21.20;99.90;;;;;;5032115;28;20120;-60
2022/08/04 05:37:16;;;;;;;13.55;6.32;;;21.40;99.90;;;;;;5032858;28;20041;-59
2022/08/04 05:39:46;;;;;;;12.80;6.53;;;21.50;99.90;;;;;;5033538;28;20041;-59
2022/08/04 05:42:13;;;;;;;12.13;6.90;;;21.60;99.90;;;;;;5033090;28;20112;-59
2022/08/04 05:44:39;;;;;;;8.60;5.65;;;;;;;;;;5031233;28;20144;-59
2022/08/04 05:47:06;;;;;;;13.63;6.63;;;22.10;99.90;;;;;;5032342;28;20045;-59
2022/08/04 05:49:34;;;;;;;14.55;6.03;;;22.30;99.90;;;;;;5032588;28;20053;-59
2022/08/04 05:52:01;;;;;;;11.35;5.63;;;22.30;99.90;;;;;;5033106;28;20045;-59
2022/08/04 05:54:29;;;;;;;10.75;5.60;;;22.50;99.90;;;;;;5032288;28;20057;-59
2022/08/04 05:56:56;;;;;;;9.15;5.53;;;22.80;99.90;;;;;;5032649;28;20063;-59
2022/08/04 05:59:24;;;;;;;10.57;5.55;;;22.80;99.90;;;;;;5015417;28;20183;-59
2022/08/04 06:01:52;;;;;;;12.95;5.53;;;23.30;99.90;;;;;;5032814;28;20505;-59
2022/08/04 06:04:20;;;;;;;9.73;5.93;;;23.40;99.90;;;;;;5014257;28;20046;-59
2022/08/04 06:06:47;;;;;;;8.57;4.30;;;23.50;99.90;;;;;;5014434;28;20049;-59
2022/08/04 06:09:13;;;;;;;12.60;6.30;;;24.00;99.90;;;;;;5032624;28;20050;-59
2022/08/04 06:11:40;;;;;;;8.25;5.03;;;24.20;99.90;;;;;;5032677;28;20091;-59
2022/08/04 06:14:11;;;;;;;11.25;5.20;;;24.00;99.90;;;;;;5030538;28;20049;-59
2022/08/04 06:16:43;;;;;;;10.38;5.10;;;23.90;99.90;;;;;;5026906;28;20531;-59
2022/08/04 06:19:13;;;;;;;9.25;4.82;;;24.20;99.90;;;;;;5031099;28;20408;-60
2022/08/04 06:21:43;;;;;;;14.57;4.38;;;24.60;99.90;;;;;;5031287;28;20180;-59
2022/08/04 06:24:14;;;;;;;7.20;4.28;;;24.70;99.90;;;;;;5031852;28;20042;-59
2022/08/04 06:26:42;;;;;;;8.00;4.68;;;24.40;99.90;;;;;;5032041;28;20154;-59
2022/08/04 06:29:16;;;;;;;9.38;5.20;;;24.50;99.90;;;;;;5032562;28;20048;-59
2022/08/04 06:31:45;;;;;;;14.07;4.65;;;24.60;99.90;;;;;;5031883;28;20053;-60
2022/08/04 06:34:13;;;;;;;9.02;4.60;;;24.60;99.90;;;;;;5031942;28;20041;-60
2022/08/04 06:36:39;;;;;;;13.35;5.50;;;24.50;99.90;;;;;;5032016;28;20127;-59
2022/08/04 06:39:07;;;;;;;13.30;5.68;;;24.70;99.90;;;;;;5031873;28;20095;-59
2022/08/04 06:41:33;;;;;;;11.73;4.93;;;24.90;99.90;;;;;;5031309;28;20046;-59
2022/08/04 06:44:01;;;;;;;14.55;4.97;;;24.60;99.90;;;;;;5030989;28;20076;-57
2022/08/04 06:46:28;;;;;;;11.95;5.47;;;24.80;99.90;;;;;;5031322;28;20053;-57
2022/08/04 06:48:55;;;;;;;17.40;6.28;;;24.70;99.90;;;;;;5032459;28;20132;-56
2022/08/04 06:51:22;;;;;;;12.05;6.07;;;24.70;99.90;;;;;;5029600;28;20080;-56
2022/08/04 06:53:47;;;;;;;12.90;5.97;;;26.10;99.90;;;;;;5030998;28;20050;-56
2022/08/04 06:56:18;;;;;;;14.80;5.07;;;24.90;99.90;;;;;;5031716;28;20060;-57
2022/08/04 06:58:45;;;;;;;7.47;4.32;;;25.20;99.90;;;;;;5032230;28;20379;-56
2022/08/04 07:01:16;;;;;;;11.35;5.35;;;25.40;99.90;;;;;;5031824;28;20489;-56
2022/08/04 07:03:43;;;;;;;10.48;5.85;;;25.00;99.90;;;;;;5031629;28;20123;-56
2022/08/04 07:06:08;;;;;;;12.43;4.90;;;25.30;99.90;;;;;;5031417;28;20095;-57
2022/08/04 07:08:35;;;;;;;8.25;5.45;;;25.10;99.90;;;;;;5030380;28;20053;-56
2022/08/04 07:11:01;;;;;;;8.77;4.47;;;25.40;99.90;;;;;;5031558;28;20486;-56
2022/08/04 07:13:30;;;;;;;10.82;4.75;;;25.60;99.90;;;;;;5014001;28;20061;-56
2022/08/04 07:15:57;;;;;;;15.63;4.90;;;25.60;99.90;;;;;;5031045;28;20049;-62
2022/08/04 07:18:23;;;;;;;7.38;4.82;;;25.60;99.90;;;;;;5032688;28;20068;-62
2022/08/04 07:20:49;;;;;;;10.18;4.45;;;27.10;99.90;;;;;;5034772;28;20049;-64
2022/08/04 07:23:16;;;;;;;12.75;5.22;;;26.00;99.90;;;;;;5034981;28;20049;-63
2022/08/04 07:25:49;;;;;;;10.10;4.20;;;26.20;99.90;;;;;;5020270;28;20042;-63
2022/08/04 07:28:15;;;;;;;10.15;3.60;;;26.30;99.90;;;;;;5029546;28;20069;-63
2022/08/04 07:30:43;;;;;;;10.75;3.90;;;26.30;99.90;;;;;;5017083;28;20045;-63
2022/08/04 07:33:10;;;;;;;8.88;3.88;;;26.60;99.90;;;;;;5034459;28;20041;-62
2022/08/04 07:35:36;;;;;;;11.10;4.90;;;26.30;99.90;;;;;;5017498;28;20041;-62
2022/08/04 07:38:02;;;;;;;13.65;4.72;;;26.10;99.90;;;;;;5033118;28;20056;-62
2022/08/04 07:40:29;;;;;;;7.45;3.85;;;26.20;99.90;;;;;;5035649;28;20493;-62
2022/08/04 07:42:56;;;;;;;10.43;3.92;;;26.00;99.90;;;;;;5028207;28;20386;-63
2022/08/04 07:45:23;;;;;;;11.68;5.75;;;26.20;99.90;;;;;;5014987;28;20066;-62
2022/08/04 07:47:49;;;;;;;10.70;4.70;;;26.00;99.90;;;;;;5014603;28;20128;-62
2022/08/04 07:50:15;;;;;;;6.10;4.25;;;26.00;99.90;;;;;;4998690;28;20133;-63
2022/08/04 07:52:41;;;;;;;9.45;4.47;;;26.10;99.90;;;;;;5015679;28;20064;-65
2022/08/04 07:55:07;;;;;;;11.88;3.88;;;25.50;99.90;;;;;;5013163;28;20490;-61
2022/08/04 07:57:33;;;;;;;10.25;4.03;;;25.50;99.90;;;;;;4995784;28;20049;-67
2022/08/04 07:59:59;;;;;;;8.48;4.32;;;25.30;99.90;;;;;;5014690;28;20417;-63
2022/08/04 08:02:25;;;;;;;13.02;4.10;;;25.60;99.90;;;;;;5014363;28;20050;-64
2022/08/04 08:04:51;;;;;;;11.10;4.50;;;26.20;99.90;;;;;;5012998;28;20034;-67
2022/08/04 08:07:19;;;;;;;7.07;4.00;;;25.50;99.90;;;;;;5018182;28;20049;-62
2022/08/04 08:09:44;;;;;;;12.35;3.97;;;25.60;99.90;;;;;;5003589;28;20081;-60
2022/08/04 08:12:11;;;;;;;8.80;4.18;;;25.40;99.90;;;;;;5024480;28;20520;-61
2022/08/04 08:14:37;;;;;;;7.53;4.68;;;27.10;99.90;;;;;;5015267;28;20045;-60
2022/08/04 08:17:03;;;;;;;9.45;4.15;;;25.50;99.90;;;;;;5013439;28;20414;-62
2022/08/04 08:19:36;;;;;;;13.50;4.10;;;25.50;99.90;;;;;;5016323;28;20060;-61
2022/08/04 08:22:03;;;;;;;8.38;4.07;;;25.80;99.90;;;;;;5014828;28;20077;-66
2022/08/04 08:24:30;;;;;;;7.15;3.28;;;25.90;99.90;;;;;;5010496;28;20050;-65
2022/08/04 08:26:56;;;;;;;8.07;4.30;;;25.50;99.90;;;;;;5026645;28;20049;-63
2022/08/04 08:29:24;;;;;;;10.38;3.72;;;25.70;99.90;;;;;;5016096;28;20046;-62
2022/08/04 08:31:50;;;;;;;12.15;4.20;;;25.60;99.90;;;;;;5014844;28;20052;-59
2022/08/04 08:34:16;;;;;;;9.10;3.53;;;25.70;99.90;;;;;;5013535;28;20041;-59
2022/08/04 08:36:49;;;;;;;8.05;3.55;;;25.90;99.90;;;;;;5014222;28;20061;-60
2022/08/04 08:39:27;;;;;;;10.80;4.13;;;25.80;99.90;;;;;;5015603;28;20042;-61
2022/08/04 08:42:07;;;;;;;7.45;3.15;;;25.70;99.90;;;;;;5014045;28;20057;-62
2022/08/04 08:44:48;;;;;;;6.93;3.17;;;25.80;99.90;;;;;;5034150;28;20103;-66
2022/08/04 08:47:42;;;;;;;6.00;3.00;;;25.80;99.90;;;;;;5034506;28;20050;-64
2022/08/04 08:50:38;;;;;;;7.40;3.22;;;26.20;99.90;;;;;;5007742;28;20065;-63
2022/08/04 08:53:07;;;;;;;10.50;2.78;;;26.20;99.90;;;;;;5032264;28;20042;-62
2022/08/04 08:56:05;;;;;;;8.25;3.17;;;26.20;99.90;;;;;;5034569;28;20046;-62
2022/08/04 08:58:50;;;;;;;7.10;2.72;;;26.30;99.90;;;;;;5034307;28;20049;-66
2022/08/04 09:01:34;;;;;;;7.97;2.65;;;26.40;99.90;;;;;;5033585;28;20499;-66
2022/08/04 09:04:28;;;;;;;7.70;2.55;;;26.40;99.90;;;;;;5015476;28;20056;-65
2022/08/04 09:07:23;;;;;;;9.00;3.08;;;26.50;99.90;;;;;;5014294;28;20056;-64
2022/08/04 09:10:11;;;;;;;7.25;2.75;;;26.70;99.90;;;;;;5025921;28;20049;-68
2022/08/04 09:13:01;;;;;;;6.53;2.30;;;27.10;99.90;;;;;;5040494;28;20109;-64
2022/08/04 09:15:43;;;;;;;8.60;2.58;;;27.20;99.90;;;;;;5033053;28;20138;-64
2022/08/04 09:18:33;;;;;;;11.75;3.42;;;27.20;99.90;;;;;;5033938;28;20076;-64
2022/08/04 09:21:08;;;;;;;9.77;3.17;;;27.50;99.90;;;;;;5033087;28;20061;-64
2022/08/04 09:24:08;;;;;;;9.77;3.00;;;28.00;99.90;;;;;;5024387;28;20128;-62
2022/08/04 09:26:47;;;;;;;6.20;3.08;;;28.20;99.90;;;;;;5029973;28;20398;-61
2022/08/04 09:29:31;;;;;;;9.25;2.97;;;28.40;99.90;;;;;;5029799;28;20048;-60
2022/08/04 09:32:16;;;;;;;7.60;2.78;;;28.10;99.90;;;;;;5014214;28;20057;-60
2022/08/04 09:34:41;;;;;;;6.32;2.28;;;28.10;99.90;;;;;;5032072;28;20045;-64
2022/08/04 09:37:13;;;;;;;7.28;2.78;;;27.90;99.90;;;;;;5015820;28;20402;-63
2022/08/04 09:39:48;;;;;;;8.43;2.40;;;27.60;99.90;;;;;;5031210;28;20112;-61
2022/08/04 09:42:56;;;;;;;5.72;2.17;;;28.90;99.90;;;;;;5030570;28;20064;-61
2022/08/04 09:45:27;;;;;;;7.18;2.03;;;27.80;99.90;;;;;;4994985;28;20136;-62
2022/08/04 09:48:06;;;;;;;5.32;2.03;;;28.00;99.90;;;;;;5033469;28;20049;-62
2022/08/04 09:50:44;;;;;;;9.10;2.77;;;27.90;99.90;;;;;;5032130;28;20440;-62
2022/08/04 09:53:15;;;;;;;4.80;1.92;;;28.00;99.90;;;;;;5031078;28;20360;-64
2022/08/04 09:55:45;;;;;;;6.22;2.05;;;27.80;99.90;;;;;;5015736;28;20061;-65
2022/08/04 09:58:31;;;;;;;4.47;2.17;;;27.80;99.90;;;;;;5032364;28;20057;-63
2022/08/04 10:01:02;;;;;;;6.97;1.83;;;27.80;99.90;;;;;;5031652;28;20048;-63
2022/08/04 10:03:33;;;;;;;6.13;1.50;;;28.20;99.90;;;;;;5044227;28;20528;-62
2022/08/04 10:06:09;;;;;;;3.75;1.35;;;27.70;99.90;;;;;;5038374;28;20055;-63
2022/08/04 10:08:58;;;;;;;6.72;1.52;;;28.00;99.90;;;;;;5020190;28;20045;-63
2022/08/04 10:11:58;;;;;;;3.53;1.58;;;28.10;99.90;;;;;;5035183;28;20099;-66
2022/08/04 10:14:26;;;;;;;5.05;1.52;;;28.20;99.90;;;;;;5033001;28;20049;-62
2022/08/04 10:17:00;;;;;;;3.45;1.10;;;28.10;99.90;;;;;;5032845;28;20041;-62
2022/08/04 10:19:30;;;;;;;3.60;1.25;;;30.10;99.90;;;;;;5014917;28;20106;-62
2022/08/04 10:22:10;;;;;;;;;;;28.60;99.90;;;;;;5031429;28;20041;-66
2022/08/04 10:24:49;;;;;;;3.17;1.00;;;28.40;99.90;;;;;;5013283;28;19921;-65
2022/08/04 10:27:35;;;;;;;2.97;1.23;;;28.10;99.90;;;;;;5032413;28;20049;-70
2022/08/04 10:30:11;;;;;;;5.20;1.10;;;28.20;99.90;;;;;;5013169;28;20060;-66
2022/08/04 10:32:51;;;;;;;2.15;1.13;;;28.20;99.90;;;;;;5031194;28;20107;-67
2022/08/04 10:35:25;;;;;;;1.93;1.00;;;28.40;99.90;;;;;;5025212;28;20081;-60
2022/08/04 10:38:18;;;;;;;2.67;1.17;;;28.30;99.90;;;;;;5030688;28;20474;-64
2022/08/04 10:40:49;;;;;;;4.63;1.10;;;28.40;99.90;;;;;;5013511;28;20493;-61
2022/08/04 10:43:41;;;;;;;6.95;1.33;;;28.30;99.90;;;;;;4999057;28;20062;-64
2022/08/04 10:46:14;;;;;;;4.63;1.10;;;28.20;99.90;;;;;;4994971;28;20055;-64
2022/08/04 10:48:53;;;;;;;2.95;1.10;;;28.10;99.90;;;;;;5012007;28;20103;-61
2022/08/04 10:51:37;;;;;;;3.75;0.90;;;27.90;99.90;;;;;;5011131;28;20140;-62
2022/08/04 10:54:42;;;;;;;2.38;1.15;;;28.40;99.90;;;;;;4992575;28;20046;-62
2022/08/04 10:57:30;;;;;;;2.55;1.05;;;28.40;99.90;;;;;;4948008;28;20129;-62
2022/08/04 11:00:09;;;;;;;4.72;1.10;;;27.90;99.90;;;;;;4963309;28;20055;-64
2022/08/04 11:02:43;;;;;;;2.97;1.48;;;28.00;99.90;;;;;;4964647;28;20570;-64
2022/08/04 11:05:25;;;;;;;1.90;1.13;;;28.10;99.90;;;;;;4958303;28;20049;-64
2022/08/04 11:07:55;;;;;;;2.95;1.20;;;28.10;99.90;;;;;;4963600;28;20087;-65
2022/08/04 11:10:24;;;;;;;2.47;1.08;;;27.70;99.90;;;;;;4963861;28;20055;-64
2022/08/04 11:12:56;;;;;;;3.75;1.35;;;27.90;99.90;;;;;;4941692;28;20119;-61
2022/08/04 11:15:29;;;;;;;3.58;1.15;;;28.00;99.90;;;;;;4956620;28;20075;-68
2022/08/04 11:18:05;;;;;;;4.78;0.95;;;27.60;99.90;;;;;;4941070;29;20043;-60
2022/08/04 11:21:06;;;;;;;4.45;1.00;;;27.70;99.90;;;;;;4954518;29;20576;-59
2022/08/04 11:23:35;;;;;;;2.65;0.85;;;27.50;99.90;;;;;;4940713;28;20061;-59
2022/08/04 11:26:23;;;;;;;2.95;1.13;;;28.70;99.90;;;;;;4968064;28;20134;-59
2022/08/04 11:29:00;;;;;;;1.80;1.00;;;27.40;99.90;;;;;;4954792;29;20069;-59
2022/08/04 11:31:30;;;;;;;5.03;1.20;;;27.60;99.90;;;;;;4970768;28;20086;-59
2022/08/04 11:34:20;;;;;;;3.95;1.20;;;27.10;99.90;;;;;;5034880;28;20041;-59
2022/08/04 11:36:53;;;;;;;3.58;1.20;;;27.30;99.90;;;;;;5026113;28;20038;-59
2022/08/04 11:39:56;;;;;;;3.38;0.88;;;27.70;99.90;;;;;;5020497;28;20041;-59
2022/08/04 11:42:35;;;;;;;3.45;1.00;;;27.50;99.90;;;;;;4993531;28;20061;-59
2022/08/04 11:45:15;;;;;;;3.80;0.82;;;27.80;99.90;;;;;;4992384;28;20054;-59
2022/08/04 11:47:52;;;;;;;2.58;1.10;;;27.40;99.90;;;;;;4992591;28;20066;-59
2022/08/04 11:50:41;;;;;;;2.65;0.90;;;27.40;99.90;;;;;;5013753;28;20049;-59
2022/08/04 11:53:15;;;;;;;3.80;1.08;;;27.70;99.90;;;;;;5005531;28;20046;-59
2022/08/04 11:55:43;;;;;;;2.65;1.13;;;27.40;99.90;;;;;;5002931;28;20127;-60
2022/08/04 11:58:09;;;;;;;5.78;1.00;;;27.30;99.90;;;;;;4985361;28;20046;-59
2022/08/04 12:00:39;;;;;;;4.90;1.10;;;27.20;99.90;;;;;;4974301;28;20059;-59
2022/08/04 12:03:26;;;;;;;2.85;1.08;;;26.70;99.90;;;;;;4989892;28;20054;-59
2022/08/04 12:06:14;;;;;;;5.45;1.15;;;28.00;99.90;;;;;;5012386;28;20108;-59
2022/08/04 12:09:02;;;;;;;5.78;1.40;;;26.80;99.90;;;;;;4983619;28;20054;-59
2022/08/04 12:12:08;;;;;;;6.28;1.67;;;26.30;99.90;;;;;;4954411;29;20055;-59
2022/08/04 12:15:19;;;;;;;6.57;1.30;;;26.50;99.90;;;;;;4950019;28;20039;-59
2022/08/04 12:18:19;;;;;;;2.95;1.10;;;26.60;99.90;;;;;;4946428;28;20051;-59
2022/08/04 12:20:48;;;;;;;6.03;1.13;;;26.70;99.90;;;;;;4973553;28;20053;-59
2022/08/04 12:23:20;;;;;;;3.80;1.33;;;26.60;99.90;;;;;;4981988;28;20181;-59
2022/08/04 12:25:48;;;;;;;3.30;1.08;;;27.00;99.90;;;;;;4990929;28;20137;-59
2022/08/04 12:28:34;;;;;;;5.43;1.50;;;27.60;99.90;;;;;;4962141;28;20050;-59
2022/08/04 12:31:17;;;;;;;3.80;1.25;;;27.00;99.90;;;;;;4958006;28;20117;-59
2022/08/04 12:34:06;;;;;;;4.78;1.20;;;27.10;99.90;;;;;;4978965;28;20050;-59
2022/08/04 12:37:02;;;;;;;7.68;1.30;;;27.10;99.90;;;;;;4972860;28;20050;-59
2022/08/04 12:39:29;;;;;;;6.10;1.42;;;27.40;99.90;;;;;;4976178;28;20058;-59
2022/08/04 12:42:06;;;;;;;4.20;1.40;;;28.00;99.90;;;;;;4976915;28;20050;-58
2022/08/04 12:44:37;;;;;;;5.28;1.60;;;27.40;99.90;;;;;;4955328;28;20154;-59
2022/08/04 12:47:06;;;;;;;4.15;1.20;;;28.00;99.90;;;;;;4973580;28;20529;-59
2022/08/04 12:49:36;;;;;;;3.35;1.27;;;27.80;99.90;;;;;;5024303;28;20135;-59
2022/08/04 12:52:06;;;;;;;4.97;1.25;;;27.70;99.90;;;;;;5033226;28;20056;-59
2022/08/04 12:54:34;;;;;;;4.28;1.30;;;27.90;99.90;;;;;;5021159;28;20038;-59
2022/08/04 12:57:02;;;;;;;3.28;1.00;;;28.30;99.90;;;;;;5033440;28;20041;-59
2022/08/04 12:59:27;;;;;;;5.60;1.83;;;28.00;99.90;;;;;;5034611;28;20081;-59
2022/08/04 13:01:56;;;;;;;3.60;1.20;;;28.30;99.90;;;;;;5033167;28;20142;-59
2022/08/04 13:04:26;;;;;;;4.60;1.40;;;28.30;99.90;;;;;;5014137;28;20506;-59
2022/08/04 13:07:17;;;;;;;2.13;1.00;;;27.90;99.90;;;;;;5015868;28;20050;-59
2022/08/04 13:09:43;;;;;;;2.67;0.95;;;28.00;99.90;;;;;;5034144;28;20064;-59
2022/08/04 13:12:15;;;;;;;3.55;1.00;;;28.50;99.90;;;;;;5032213;28;20497;-59
2022/08/04 13:14:44;;;;;;;1.90;0.70;;;28.50;99.90;;;;;;5017568;28;20054;-60
2022/08/04 13:17:11;;;;;;;2.38;1.05;;;29.00;99.90;;;;;;5016996;28;20113;-58
2022/08/04 13:19:37;;;;;;;3.13;0.82;;;28.40;99.90;;;;;;5014066;28;20069;-58
2022/08/04 13:22:04;;;;;;;3.03;0.80;;;29.00;99.90;;;;;;5009390;28;20466;-58
2022/08/04 13:24:32;;;;;;;3.25;1.00;;;29.00;99.90;;;;;;5015013;28;20442;-58
2022/08/04 13:27:10;;;;;;;2.92;0.77;;;29.20;99.90;;;;;;5009939;28;20038;-58
2022/08/04 13:29:47;;;;;;;3.63;1.02;;;29.20;99.90;;;;;;5011020;28;20046;-58
2022/08/04 13:32:19;;;;;;;3.95;1.00;;;29.00;99.90;;;;;;5013662;28;20042;-57
2022/08/04 13:34:47;;;;;;;3.60;0.90;;;29.00;99.90;;;;;;5014206;28;20065;-57
2022/08/04 13:37:14;;;;;;;2.97;0.93;;;29.10;99.90;;;;;;5010321;28;20046;-58
2022/08/04 13:39:45;;;;;;;3.85;1.20;;;29.00;99.90;;;;;;5011024;28;20089;-58
2022/08/04 13:42:12;;;;;;;5.10;1.08;;;28.60;99.90;;;;;;5017399;28;20498;-58
2022/08/04 13:44:41;;;;;;;5.28;1.27;;;28.60;99.90;;;;;;5031508;28;20053;-60
2022/08/04 13:47:21;;;;;;;6.40;1.20;;;28.20;99.90;;;;;;5034277;28;20045;-58
2022/08/04 13:50:14;;;;;;;6.30;1.55;;;29.70;99.90;;;;;;5033604;28;20116;-59
2022/08/04 13:52:41;;;;;;;2.17;0.90;;;28.50;99.90;;;;;;5025959;28;20131;-61
2022/08/04 13:55:16;;;;;;;6.60;1.63;;;28.40;99.90;;;;;;5010285;28;20131;-57
2022/08/04 13:57:44;;;;;;;4.93;1.05;;;28.20;99.90;;;;;;5035511;28;20084;-57
2022/08/04 14:00:10;;;;;;;3.63;1.20;;;28.20;99.90;;;;;;5036389;28;20041;-61
2022/08/04 14:02:45;;;;;;;4.85;1.00;;;28.20;99.90;;;;;;5020980;28;20071;-59